Flight Briefing

Flight
SQS1025
Departure Arrival
El Tari International (WATT)
Click to view NOTAMS
Saumlaki / Olilit (WAPI)
Click to view NOTAMS
Departure Time Arrival Time
09:00 10:00
Aircraft Distance
PIAGGIO AVAN 471.799
Departure METAR Arrival METAR
WATT 180800Z 11016KT 9999 FEW020 32/15 Q1010 NOSIG
Route
SPRI2A SPRIG ELBIS BUTPA 08S130E
Notes



Additional Data
View recent IFR Routes data



Data Courtesy of FlightAware